Time;durP1;ratioP1;P1;durP2;ratioP2;P2;SDS_P1;SDS_P2;PMS_P1;PMS_P2;Temp;Humidity;BMP_temperature;BMP_pressure;BME280_temperature;BME280_humidity;BME280_pressure;Samples;Min_cycle;Max_cycle;Signal;HPM_P1;HPM_P2
2023/11/17 00:00:13;;;;;;;16.23;10.07;;;;;;;4.74;76.18;99903.78;5111844;27;20552;-68
2023/11/17 00:02:41;;;;;;;19.80;11.63;;;;;;;4.72;75.40;99905.47;5111011;27;20208;-69
2023/11/17 00:05:10;;;;;;;18.87;11.37;;;;;;;4.71;75.98;99902.91;5105016;27;20222;-68
2023/11/17 00:07:39;;;;;;;18.43;11.40;;;;;;;4.69;75.54;99905.44;5121821;27;20211;-68
2023/11/17 00:10:08;;;;;;;18.23;9.93;;;;;;;4.68;75.48;99902.88;5108123;28;20215;-68
2023/11/17 00:12:38;;;;;;;18.67;11.47;;;;;;;4.67;74.76;99912.22;5109473;27;20559;-67
2023/11/17 00:15:07;;;;;;;17.00;10.93;;;;;;;4.62;74.88;99908.78;5103241;28;20232;-68
2023/11/17 00:17:35;;;;;;;20.67;10.73;;;;;;;4.58;75.63;99904.47;5114221;27;20204;-67
2023/11/17 00:20:04;;;;;;;19.63;11.63;;;;;;;4.50;74.98;99894.19;5112554;28;20635;-67
2023/11/17 00:22:31;;;;;;;18.30;11.83;;;;;;;4.44;75.26;99896.69;5109588;28;20203;-69
2023/11/17 00:24:59;;;;;;;16.03;9.60;;;;;;;4.44;76.14;99895.81;5103560;28;20311;-71
2023/11/17 00:27:28;;;;;;;15.60;10.53;;;;;;;4.40;76.42;99899.19;5111722;28;20287;-71
2023/11/17 00:29:57;;;;;;;15.57;9.77;;;;;;;4.33;75.92;99896.56;5112964;28;20196;-73
2023/11/17 00:32:26;;;;;;;16.80;10.30;;;;;;;4.28;75.51;99893.09;5109007;27;20210;-72
2023/11/17 00:34:54;;;;;;;17.60;10.13;;;;;;;4.30;75.60;99896.50;5112171;27;20663;-67
2023/11/17 00:37:25;;;;;;;14.93;9.00;;;;;;;4.29;75.19;99896.50;5117125;27;20330;-71
2023/11/17 00:39:53;;;;;;;16.67;10.90;;;;;;;4.28;76.21;99885.44;5105440;27;20678;-72
2023/11/17 00:42:21;;;;;;;15.50;10.27;;;;;;;4.27;76.92;99890.53;5120344;27;20812;-72
2023/11/17 00:44:49;;;;;;;18.00;10.97;;;;;;;4.26;77.18;99892.22;5110714;27;21003;-74
2023/11/17 00:47:18;;;;;;;16.17;10.00;;;;;;;4.27;76.30;99888.84;5114985;27;20206;-73
2023/11/17 00:49:48;;;;;;;17.10;9.87;;;;;;;4.26;75.92;99897.31;5118077;27;20674;-70
2023/11/17 00:52:16;;;;;;;17.53;9.93;;;;;;;4.26;75.79;99892.22;5114710;28;20199;-69
2023/11/17 00:54:47;;;;;;;14.70;9.83;;;;;;;4.24;75.94;99896.47;5099560;27;20721;-71
2023/11/17 00:57:16;;;;;;;12.47;8.10;;;;;;;4.22;76.85;99887.94;5105354;27;20287;-72
2023/11/17 00:59:44;;;;;;;15.97;9.50;;;;;;;4.17;75.84;99888.72;5116870;27;20232;-71
2023/11/17 01:02:15;;;;;;;14.17;9.13;;;;;;;4.17;76.20;99881.94;5112052;28;20559;-70
2023/11/17 01:04:44;;;;;;;16.43;10.50;;;;;;;4.16;76.70;99872.56;5114103;28;20298;-71
2023/11/17 01:07:12;;;;;;;16.63;11.23;;;;;;;4.11;75.20;99869.09;5115393;27;20562;-72
2023/11/17 01:09:43;;;;;;;19.33;11.83;;;;;;;4.07;75.79;99864.81;5117009;27;20246;-71
2023/11/17 01:12:12;;;;;;;19.60;12.50;;;;;;;4.03;75.73;99873.25;5110799;28;20277;-71
2023/11/17 01:14:40;;;;;;;20.40;13.77;;;;;;;4.03;77.78;99878.34;5105018;27;20228;-70
2023/11/17 01:17:10;;;;;;;18.60;12.83;;;;;;;4.02;77.82;99874.09;5113627;28;20200;-71
2023/11/17 01:19:45;;;;;;;20.63;13.60;;;;;;;4.01;76.37;99877.47;5114359;27;20215;-71
2023/11/17 01:22:14;;;;;;;19.27;12.40;;;;;;;4.06;77.52;99875.84;5115165;27;20191;-73
2023/11/17 01:24:42;;;;;;;17.53;12.00;;;;;;;4.09;77.33;99870.78;5110448;27;20200;-73
2023/11/17 01:27:11;;;;;;;16.33;10.50;;;;;;;4.10;76.12;99875.03;5113091;28;20215;-72
2023/11/17 01:29:38;;;;;;;18.83;12.03;;;;;;;4.05;77.10;99869.00;5116583;27;20208;-73
2023/11/17 01:32:06;;;;;;;14.47;10.07;;;;;;;4.03;78.79;99873.25;5102478;28;20729;-67
2023/11/17 01:34:36;;;;;;;17.43;10.67;;;;;;;4.01;77.82;99867.28;5113064;27;20362;-68
2023/11/17 01:37:05;;;;;;;15.40;10.27;;;;;;;4.03;78.84;99870.72;5103778;28;20209;-68
2023/11/17 01:39:34;;;;;;;13.80;9.53;;;;;;;4.01;79.52;99875.78;5117436;27;20192;-67
2023/11/17 01:42:02;;;;;;;13.00;8.93;;;;;;;3.99;79.17;99866.41;5112052;27;20289;-72
2023/11/17 01:44:30;;;;;;;15.97;8.97;;;;;;;3.97;81.22;99870.63;5116236;27;20670;-67
2023/11/17 01:46:58;;;;;;;14.23;9.13;;;;;;;3.90;80.71;99873.94;5118992;27;20235;-68
2023/11/17 01:49:26;;;;;;;14.23;8.93;;;;;;;3.81;80.56;99867.88;5110075;27;20210;-67
2023/11/17 01:51:55;;;;;;;14.13;9.77;;;;;;;3.79;80.59;99874.69;5112274;27;20510;-67
2023/11/17 01:54:23;;;;;;;14.43;9.37;;;;;;;3.75;80.16;99870.34;5113324;27;20302;-67
2023/11/17 01:56:53;;;;;;;14.63;9.60;;;;;;;3.74;81.22;99855.91;5106388;27;20201;-67
2023/11/17 01:59:21;;;;;;;17.13;10.13;;;;;;;3.74;81.11;99852.50;5102020;27;20212;-68
2023/11/17 02:01:50;;;;;;;13.53;9.03;;;;;;;3.71;80.32;99866.06;5113535;27;20570;-67
2023/11/17 02:04:19;;;;;;;14.67;10.00;;;;;;;3.68;80.68;99862.59;5105706;28;20223;-65
2023/11/17 02:06:53;;;;;;;13.00;9.73;;;;;;;3.71;81.55;99870.28;5109715;27;20208;-68
2023/11/17 02:09:34;;;;;;;15.20;9.83;;;;;;;3.74;81.70;99868.66;5112899;27;20323;-66
2023/11/17 02:12:14;;;;;;;11.87;8.17;;;;;;;3.78;80.13;99861.91;5110582;27;20655;-68
2023/11/17 02:14:47;;;;;;;13.43;8.77;;;;;;;3.74;81.15;99857.59;5119488;27;20239;-67
2023/11/17 02:17:17;;;;;;;13.70;10.23;;;;;;;3.71;81.02;99858.41;5095713;28;20197;-65
2023/11/17 02:19:46;;;;;;;16.80;9.77;;;;;;;3.72;81.28;99859.25;5103674;27;20683;-68
2023/11/17 02:22:18;;;;;;;13.20;8.90;;;;;;;3.68;82.16;99860.91;5105510;27;20238;-67
2023/11/17 02:25:01;;;;;;;14.60;9.87;;;;;;;3.67;81.77;99858.34;5104649;28;20586;-66
2023/11/17 02:27:50;;;;;;;13.30;8.83;;;;;;;3.62;81.65;99860.84;5108529;27;20246;-67
2023/11/17 02:30:20;;;;;;;14.80;9.00;;;;;;;3.58;80.34;99857.41;5111722;27;20203;-67
2023/11/17 02:32:50;;;;;;;13.77;9.27;;;;;;;3.58;81.39;99861.66;5110301;27;20275;-69
2023/11/17 02:35:18;;;;;;;13.63;9.47;;;;;;;3.56;81.60;99863.31;5119447;27;20670;-66
2023/11/17 02:37:50;;;;;;;14.17;8.93;;;;;;;3.58;80.82;99865.03;5112332;28;20571;-67
2023/11/17 02:40:19;;;;;;;14.20;9.03;;;;;;;3.61;82.14;99871.88;5105450;28;20251;-68
2023/11/17 02:42:49;;;;;;;14.17;8.40;;;;;;;3.56;82.44;99864.16;5110433;27;20201;-68
2023/11/17 02:45:19;;;;;;;14.43;8.87;;;;;;;3.57;81.80;99865.00;5106117;27;20558;-68
2023/11/17 02:47:49;;;;;;;11.47;7.23;;;;;;;3.53;81.29;99868.34;5115272;27;20309;-67
2023/11/17 02:50:31;;;;;;;12.73;8.10;;;;;;;3.48;81.21;99864.88;5107910;27;20730;-69
2023/11/17 02:53:17;;;;;;;9.40;7.37;;;;;;;3.46;82.19;99871.63;5105314;27;20199;-66
2023/11/17 02:55:45;;;;;;;11.10;7.17;;;;;;;3.42;82.54;99859.69;5107921;28;20208;-69
2023/11/17 02:58:15;;;;;;;12.20;7.97;;;;;;;3.43;81.31;99859.75;5104536;27;20291;-68
2023/11/17 03:00:44;;;;;;;10.80;7.50;;;;;;;3.45;83.06;99864.84;5114561;27;20199;-68
2023/11/17 03:03:13;;;;;;;9.53;6.70;;;;;;;3.44;81.70;99858.91;5113979;27;20203;-69
2023/11/17 03:05:41;;;;;;;10.13;5.97;;;;;;;3.43;82.25;99861.44;5103049;27;20571;-68
2023/11/17 03:08:10;;;;;;;10.57;6.80;;;;;;;3.45;83.19;99859.75;5111706;27;20769;-68
2023/11/17 03:10:39;;;;;;;10.10;7.00;;;;;;;3.43;82.43;99854.66;5107122;28;20254;-69
2023/11/17 03:13:13;;;;;;;9.13;5.83;;;;;;;3.44;81.64;99863.13;5107563;28;20210;-67
2023/11/17 03:15:43;;;;;;;9.00;6.43;;;;;;;3.40;82.41;99862.25;5100208;27;20267;-68
2023/11/17 03:18:12;;;;;;;8.50;6.97;;;;;;;3.42;81.48;99865.66;5118967;27;20260;-68
2023/11/17 03:20:40;;;;;;;11.37;7.23;;;;;;;3.46;81.34;99871.63;5102655;28;20217;-69
2023/11/17 03:23:08;;;;;;;12.90;7.23;;;;;;;3.46;81.50;99866.53;5108727;27;20196;-68
2023/11/17 03:25:39;;;;;;;10.33;6.13;;;;;;;3.50;80.33;99863.19;5109605;27;20292;-69
2023/11/17 03:28:13;;;;;;;9.67;6.30;;;;;;;3.52;80.82;99864.09;5118564;27;20314;-68
2023/11/17 03:30:41;;;;;;;8.30;6.10;;;;;;;3.54;81.41;99865.84;5107028;28;20585;-68
2023/11/17 03:33:11;;;;;;;13.80;6.37;;;;;;;3.52;81.35;99856.47;5103895;27;20195;-68
2023/11/17 03:35:40;;;;;;;10.73;6.90;;;;;;;3.51;81.45;99849.66;5100982;27;20207;-67
2023/11/17 03:38:13;;;;;;;7.80;5.80;;;;;;;3.48;81.03;99844.50;5111413;28;20200;-68
2023/11/17 03:40:45;;;;;;;9.77;7.00;;;;;;;3.48;80.34;99847.06;5100644;28;20327;-65
2023/11/17 03:43:14;;;;;;;12.07;6.47;;;;;;;3.47;79.88;99850.44;5102420;28;20621;-69
2023/11/17 03:45:44;;;;;;;9.63;6.00;;;;;;;3.42;81.02;99847.81;5106607;27;20573;-66
2023/11/17 03:48:12;;;;;;;6.90;4.90;;;;;;;3.40;79.40;99857.16;5106417;27;20212;-71
2023/11/17 03:50:42;;;;;;;7.37;5.33;;;;;;;3.32;79.17;99848.53;5100344;27;20258;-69
2023/11/17 03:53:10;;;;;;;8.87;5.53;;;;;;;3.31;80.41;99851.91;5111723;27;20191;-71
2023/11/17 03:55:38;;;;;;;9.27;5.70;;;;;;;3.30;79.85;99847.66;5116312;27;20200;-70
2023/11/17 03:58:06;;;;;;;7.63;5.93;;;;;;;3.30;80.81;99851.06;5111696;27;20195;-69
2023/11/17 04:00:34;;;;;;;9.50;5.90;;;;;;;3.26;80.49;99846.75;5106804;28;20197;-70
2023/11/17 04:03:04;;;;;;;9.73;5.77;;;;;;;3.27;80.68;99845.06;5101438;28;20249;-70
2023/11/17 04:05:34;;;;;;;8.30;5.90;;;;;;;3.26;80.42;99846.75;5113932;27;20568;-74
2023/11/17 04:08:03;;;;;;;6.17;4.23;;;;;;;3.23;79.73;99849.25;5117411;27;20216;-72
2023/11/17 04:10:31;;;;;;;7.70;5.47;;;;;;;3.21;79.43;99848.38;5103028;28;20572;-73
2023/11/17 04:13:00;;;;;;;7.90;4.90;;;;;;;3.19;79.50;99847.50;5107113;28;20235;-74
2023/11/17 04:15:28;;;;;;;7.87;5.57;;;;;;;3.20;80.56;99849.19;5100765;27;20226;-73
2023/11/17 04:17:58;;;;;;;11.43;5.13;;;;;;;3.24;81.18;99840.78;5101905;28;20243;-73
2023/11/17 04:20:26;;;;;;;7.30;5.40;;;;;;;3.21;80.15;99840.75;5106669;28;20296;-71
2023/11/17 04:22:54;;;;;;;10.83;6.13;;;;;;;3.21;79.73;99842.44;5105890;28;20220;-72
2023/11/17 04:25:24;;;;;;;7.37;5.20;;;;;;;3.26;81.06;99844.19;5113479;28;20200;-71
2023/11/17 04:27:51;;;;;;;7.13;4.40;;;;;;;3.28;80.31;99845.09;5111603;28;20264;-72
2023/11/17 04:30:20;;;;;;;8.20;5.73;;;;;;;3.26;80.53;99841.66;5107531;28;20196;-71
2023/11/17 04:32:48;;;;;;;8.23;5.20;;;;;;;3.24;80.68;99840.78;5105900;28;20809;-72
2023/11/17 04:35:16;;;;;;;6.97;4.83;;;;;;;3.25;80.72;99831.47;5118739;28;20207;-73
2023/11/17 04:37:44;;;;;;;9.87;5.40;;;;;;;3.24;80.44;99830.63;5110019;28;20204;-70
2023/11/17 04:40:13;;;;;;;9.40;5.37;;;;;;;3.29;80.57;99838.31;5106225;28;20192;-72
2023/11/17 04:42:42;;;;;;;8.57;5.10;;;;;;;3.27;81.12;99835.72;5097944;28;20191;-72
2023/11/17 04:45:10;;;;;;;8.00;5.23;;;;;;;3.27;81.38;99834.88;5098446;28;20542;-73
2023/11/17 04:47:39;;;;;;;7.30;5.13;;;;;;;3.25;80.07;99837.41;5101590;28;20590;-72
2023/11/17 04:50:09;;;;;;;6.43;5.20;;;;;;;3.28;80.25;99847.66;5105881;27;20294;-72
2023/11/17 04:52:38;;;;;;;7.30;4.77;;;;;;;3.25;80.17;99846.75;5107128;28;20248;-72
2023/11/17 04:55:06;;;;;;;7.30;4.80;;;;;;;3.27;80.35;99845.91;5117856;28;20204;-72
2023/11/17 04:57:36;;;;;;;7.63;4.93;;;;;;;3.27;79.18;99851.00;5106083;28;20543;-71
2023/11/17 05:00:06;;;;;;;7.20;5.17;;;;;;;3.21;80.53;99848.38;5106133;28;20204;-70
2023/11/17 05:02:37;;;;;;;6.27;5.07;;;;;;;3.21;81.36;99845.00;5112597;28;20201;-67
2023/11/17 05:05:10;;;;;;;6.50;5.00;;;;;;;3.19;80.49;99861.91;5103655;28;20667;-66
2023/11/17 05:07:44;;;;;;;8.53;5.67;;;;;;;3.21;79.76;99861.13;5095017;28;20230;-66
2023/11/17 05:10:13;;;;;;;7.10;5.30;;;;;;;3.20;79.40;99858.53;5110341;28;20196;-65
2023/11/17 05:12:42;;;;;;;12.33;5.10;;;;;;;3.23;80.12;99856.88;5104562;28;20204;-64
2023/11/17 05:15:13;;;;;;;6.67;5.20;;;;;;;3.21;79.81;99853.47;5114211;28;20240;-64
2023/11/17 05:17:44;;;;;;;6.63;4.97;;;;;;;3.20;81.28;99858.53;5102040;28;20610;-68
2023/11/17 05:20:14;;;;;;;6.50;5.10;;;;;;;3.16;80.37;99847.44;5121987;27;20269;-65
2023/11/17 05:22:43;;;;;;;11.10;5.23;;;;;;;3.16;81.14;99849.97;5110687;28;20219;-65
2023/11/17 05:25:11;;;;;;;7.17;4.73;;;;;;;3.16;80.58;99862.72;5116434;27;20215;-67
2023/11/17 05:27:41;;;;;;;6.20;4.50;;;;;;;3.17;80.72;99864.44;5102812;27;20330;-66
2023/11/17 05:30:10;;;;;;;8.53;5.90;;;;;;;3.12;80.40;99851.63;5114810;27;20200;-67
2023/11/17 05:32:41;;;;;;;6.80;5.13;;;;;;;3.13;81.81;99848.28;5111500;27;20253;-66
2023/11/17 05:35:10;;;;;;;7.33;5.37;;;;;;;3.14;79.56;99855.06;5103966;27;20200;-67
2023/11/17 05:37:38;;;;;;;10.10;4.63;;;;;;;3.11;80.75;99851.63;5100046;27;20205;-65
2023/11/17 05:40:08;;;;;;;8.57;5.57;;;;;;;3.05;81.17;99849.81;5109807;28;20208;-65
2023/11/17 05:42:39;;;;;;;8.60;5.50;;;;;;;3.07;81.28;99848.16;5111517;27;20200;-64
2023/11/17 05:45:12;;;;;;;7.43;5.03;;;;;;;3.13;80.43;99855.06;5119800;27;20200;-64
2023/11/17 05:47:42;;;;;;;8.37;5.13;;;;;;;3.15;80.84;99853.38;5105277;27;20589;-64
2023/11/17 05:50:11;;;;;;;8.23;5.00;;;;;;;3.18;80.01;99855.97;5099268;27;20229;-66
2023/11/17 05:52:41;;;;;;;6.23;4.50;;;;;;;3.19;80.22;99852.59;5106574;27;20635;-65
2023/11/17 05:55:11;;;;;;;7.63;5.10;;;;;;;3.17;80.77;99856.81;5109672;27;20203;-68
2023/11/17 05:57:42;;;;;;;8.30;4.87;;;;;;;3.14;79.56;99860.16;5105436;27;20234;-67
2023/11/17 06:00:13;;;;;;;5.80;4.10;;;;;;;3.09;79.70;99860.91;5104151;28;20216;-65
2023/11/17 06:02:43;;;;;;;7.87;4.87;;;;;;;3.09;79.92;99860.91;5108032;27;20214;-66
2023/11/17 06:05:13;;;;;;;7.43;4.77;;;;;;;3.10;80.54;99867.72;5106014;27;20250;-65
2023/11/17 06:07:41;;;;;;;7.03;5.33;;;;;;;3.10;81.03;99857.56;5103283;27;20216;-64
2023/11/17 06:10:10;;;;;;;7.30;4.90;;;;;;;3.06;79.76;99861.75;5116231;27;20196;-67
2023/11/17 06:12:38;;;;;;;6.60;4.80;;;;;;;3.06;80.75;99864.28;5110260;27;20207;-66
2023/11/17 06:15:07;;;;;;;9.30;6.07;;;;;;;3.06;81.57;99865.97;5109490;27;20231;-69
2023/11/17 06:17:36;;;;;;;8.10;5.40;;;;;;;3.05;80.02;99870.19;5109592;27;20206;-66
2023/11/17 06:20:08;;;;;;;7.97;5.60;;;;;;;3.06;80.95;99868.53;5106521;28;20235;-68
2023/11/17 06:22:37;;;;;;;7.27;4.90;;;;;;;3.02;81.69;99874.38;5113815;27;20649;-67
2023/11/17 06:25:05;;;;;;;9.00;5.63;;;;;;;3.09;81.14;99876.19;5114923;27;20227;-67
2023/11/17 06:27:33;;;;;;;7.53;5.23;;;;;;;3.08;81.10;99871.94;5109736;27;20206;-68
2023/11/17 06:30:02;;;;;;;8.80;5.90;;;;;;;3.05;80.77;99870.19;5111728;27;20204;-68
2023/11/17 06:32:32;;;;;;;7.07;5.17;;;;;;;2.99;82.09;99875.19;5109101;27;20200;-67
2023/11/17 06:35:00;;;;;;;7.10;4.87;;;;;;;2.99;81.61;99877.75;5113211;27;20196;-64
2023/11/17 06:37:30;;;;;;;8.43;5.77;;;;;;;3.00;82.82;99886.22;5116762;27;20215;-66
2023/11/17 06:39:59;;;;;;;7.17;5.60;;;;;;;2.95;81.25;99873.44;5123316;27;20201;-66
2023/11/17 06:42:29;;;;;;;9.17;5.43;;;;;;;3.00;82.96;99878.59;5118316;27;20234;-65
2023/11/17 06:44:57;;;;;;;8.97;5.83;;;;;;;3.05;81.74;99882.06;5118823;27;20212;-67
2023/11/17 06:47:25;;;;;;;8.57;6.20;;;;;;;3.06;82.71;99886.34;5114660;27;20223;-66
2023/11/17 06:49:53;;;;;;;7.33;5.27;;;;;;;3.05;82.21;99890.53;5113658;27;20306;-65
2023/11/17 06:52:21;;;;;;;7.77;5.53;;;;;;;3.07;82.88;99893.13;5114625;27;20198;-66
2023/11/17 06:54:51;;;;;;;8.57;5.73;;;;;;;3.14;82.84;99890.72;5110979;27;20742;-69
2023/11/17 06:57:19;;;;;;;8.17;6.33;;;;;;;3.17;82.93;99884.81;5119004;27;20726;-68
2023/11/17 06:59:47;;;;;;;8.53;5.77;;;;;;;3.21;82.32;99894.22;5117523;27;20282;-67
2023/11/17 07:02:19;;;;;;;11.13;5.47;;;;;;;3.22;82.42;99887.44;5116393;27;20239;-69
2023/11/17 07:04:48;;;;;;;8.80;5.83;;;;;;;3.23;82.01;99889.97;5122493;27;20200;-67
2023/11/17 07:07:16;;;;;;;10.53;6.03;;;;;;;3.26;82.08;99890.03;5097628;28;20674;-69
2023/11/17 07:09:44;;;;;;;8.20;6.10;;;;;;;3.30;81.80;99890.94;5098732;27;20582;-68
2023/11/17 07:12:13;;;;;;;8.20;6.07;;;;;;;3.34;82.18;99891.00;5102509;27;20203;-68
2023/11/17 07:14:41;;;;;;;9.33;5.93;;;;;;;3.38;81.39;99891.91;5115029;27;20266;-70
2023/11/17 07:17:09;;;;;;;8.80;5.43;;;;;;;3.39;80.57;99899.59;5110841;27;20207;-69
2023/11/17 07:19:37;;;;;;;9.80;6.37;;;;;;;3.35;80.42;99902.91;5122338;27;20626;-68
2023/11/17 07:22:05;;;;;;;10.67;5.80;;;;;;;3.32;81.99;99897.78;5117514;27;20656;-72
2023/11/17 07:24:34;;;;;;;11.00;6.47;;;;;;;3.39;82.05;99902.13;5107905;27;20192;-73
2023/11/17 07:27:02;;;;;;;8.83;6.10;;;;;;;3.39;80.96;99904.69;5113666;27;20600;-73
2023/11/17 07:29:32;;;;;;;7.27;4.90;;;;;;;3.44;82.02;99903.88;5112832;27;20581;-73
2023/11/17 07:32:04;;;;;;;9.37;5.87;;;;;;;3.35;81.42;99905.47;5103851;27;20204;-73
2023/11/17 07:34:32;;;;;;;8.67;6.13;;;;;;;3.33;82.30;99911.38;5107326;27;20193;-72
2023/11/17 07:37:01;;;;;;;9.43;6.60;;;;;;;3.29;82.78;99907.91;5113231;27;20235;-73
2023/11/17 07:39:29;;;;;;;8.77;6.07;;;;;;;3.32;82.08;99907.13;5104040;27;20371;-72
2023/11/17 07:41:57;;;;;;;7.90;5.83;;;;;;;3.33;81.22;99912.22;5108339;27;20200;-73
2023/11/17 07:44:25;;;;;;;10.93;6.57;;;;;;;3.33;82.25;99917.31;5110391;28;20220;-72
2023/11/17 07:46:58;;;;;;;10.43;6.10;;;;;;;3.34;81.83;99921.56;5114462;27;20287;-72
2023/11/17 07:49:26;;;;;;;11.57;7.27;;;;;;;3.32;82.20;99915.59;5098210;27;20255;-72
2023/11/17 07:51:54;;;;;;;10.53;6.40;;;;;;;3.33;81.23;99916.47;5109931;28;20209;-73
2023/11/17 07:54:23;;;;;;;11.40;6.63;;;;;;;3.28;81.29;99918.94;5113158;27;20206;-69
2023/11/17 07:56:53;;;;;;;9.80;6.57;;;;;;;3.33;82.35;99917.31;5114809;27;20200;-71
2023/11/17 07:59:23;;;;;;;10.37;6.67;;;;;;;3.37;81.45;99924.16;5107916;27;20217;-72
2023/11/17 08:01:51;;;;;;;11.67;7.60;;;;;;;3.37;82.45;99926.72;5111123;27;20507;-73
2023/11/17 08:04:24;;;;;;;10.00;7.03;;;;;;;3.34;81.55;99931.75;5098806;27;20248;-75
2023/11/17 08:06:53;;;;;;;11.17;7.13;;;;;;;3.32;81.80;99924.94;5109585;27;20199;-73
2023/11/17 08:09:22;;;;;;;11.43;6.67;;;;;;;3.35;82.48;99933.47;5101554;28;20699;-74
2023/11/17 08:11:50;;;;;;;7.90;6.33;;;;;;;3.34;82.71;99934.28;5114927;27;20207;-71
2023/11/17 08:14:19;;;;;;;11.50;7.70;;;;;;;3.38;82.98;99941.16;5104844;28;20765;-72
2023/11/17 08:16:50;;;;;;;7.13;5.30;;;;;;;3.34;81.56;99939.38;5112097;27;20307;-74
2023/11/17 08:19:20;;;;;;;11.30;6.60;;;;;;;3.29;81.89;99948.66;5111818;27;20206;-73
2023/11/17 08:21:54;;;;;;;10.63;6.90;;;;;;;3.26;82.42;99943.50;5108697;28;20196;-72
2023/11/17 08:24:23;;;;;;;11.10;7.10;;;;;;;3.23;82.68;99940.06;5101969;28;20613;-72
2023/11/17 08:26:53;;;;;;;9.60;5.53;;;;;;;3.18;82.89;99950.16;5108450;28;20295;-71
2023/11/17 08:29:21;;;;;;;9.53;6.03;;;;;;;3.14;81.79;99956.91;5108593;28;21181;-73
2023/11/17 08:31:51;;;;;;;9.53;6.03;;;;;;;3.09;81.41;99948.34;5110174;27;20693;-67
2023/11/17 08:34:21;;;;;;;9.03;6.13;;;;;;;3.03;82.45;99953.31;5105633;28;20196;-67
2023/11/17 08:36:50;;;;;;;10.70;6.10;;;;;;;2.99;83.17;99956.63;5107091;28;20242;-68
2023/11/17 08:39:26;;;;;;;9.57;5.07;;;;;;;2.96;82.02;99961.66;5117882;28;20651;-67
2023/11/17 08:41:56;;;;;;;9.93;5.67;;;;;;;2.93;83.48;99960.75;5106137;28;20196;-65
2023/11/17 08:44:25;;;;;;;9.53;6.10;;;;;;;2.97;83.04;99965.06;5109721;28;20643;-66
2023/11/17 08:46:54;;;;;;;7.00;5.43;;;;;;;2.89;83.30;99965.78;5107975;28;20211;-67
2023/11/17 08:49:22;;;;;;;7.67;5.47;;;;;;;2.89;81.86;99970.03;5113191;28;20224;-66
2023/11/17 08:51:51;;;;;;;6.87;4.47;;;;;;;2.83;83.52;99962.25;5106154;28;20207;-68
2023/11/17 08:54:22;;;;;;;4.83;3.57;;;;;;;2.80;82.24;99969.84;5113474;27;20298;-67
2023/11/17 08:56:50;;;;;;;7.10;5.10;;;;;;;2.77;83.19;99968.13;5112962;27;20299;-67
2023/11/17 08:59:19;;;;;;;6.50;4.10;;;;;;;2.74;82.83;99960.41;5115319;27;20210;-67
2023/11/17 09:01:48;;;;;;;6.87;4.70;;;;;;;2.73;83.79;99979.06;5111610;28;20203;-68
2023/11/17 09:04:17;;;;;;;8.97;5.83;;;;;;;2.74;83.28;99977.38;5117647;27;20196;-66
2023/11/17 09:06:45;;;;;;;8.00;4.47;;;;;;;2.78;83.66;99990.19;5110894;27;20202;-67
2023/11/17 09:09:14;;;;;;;6.87;4.43;;;;;;;2.79;83.09;99980.84;5113882;27;20655;-65
2023/11/17 09:11:59;;;;;;;9.10;4.50;;;;;;;2.84;84.43;99974.19;5110101;27;20196;-67
2023/11/17 09:14:28;;;;;;;7.80;4.77;;;;;;;2.83;84.04;99972.44;5105297;27;20770;-64
2023/11/17 09:17:01;;;;;;;6.80;4.77;;;;;;;2.81;84.46;99977.50;5112364;27;20227;-66
2023/11/17 09:19:29;;;;;;;6.90;5.10;;;;;;;2.79;84.59;99979.16;5114426;27;20227;-67
2023/11/17 09:21:57;;;;;;;6.73;4.97;;;;;;;2.77;83.73;99978.28;5109439;28;20280;-66
2023/11/17 09:24:25;;;;;;;7.33;4.90;;;;;;;2.76;84.24;99976.59;5109283;28;20303;-68
2023/11/17 09:26:54;;;;;;;6.63;5.23;;;;;;;2.75;84.42;99982.47;5101087;27;20237;-66
2023/11/17 09:29:23;;;;;;;6.83;5.20;;;;;;;2.72;84.87;99977.31;5101910;27;20722;-66
2023/11/17 09:31:51;;;;;;;8.20;5.27;;;;;;;2.76;84.49;99975.69;5105155;27;20204;-66
2023/11/17 09:34:19;;;;;;;8.17;5.60;;;;;;;2.78;85.05;99979.16;5109266;27;20563;-67
2023/11/17 09:36:47;;;;;;;6.87;4.97;;;;;;;2.75;84.32;99979.94;5112088;27;20200;-68
2023/11/17 09:39:17;;;;;;;8.10;5.43;;;;;;;2.78;84.64;99976.59;5118484;27;20586;-68
2023/11/17 09:41:46;;;;;;;8.57;5.83;;;;;;;2.84;84.43;99972.50;5101207;27;20196;-65
2023/11/17 09:44:15;;;;;;;7.20;5.07;;;;;;;2.85;84.75;99966.56;5117172;27;20568;-67
2023/11/17 09:46:53;;;;;;;7.13;5.27;;;;;;;2.94;83.25;99967.56;5111310;27;20720;-67
2023/11/17 09:49:28;;;;;;;6.67;5.07;;;;;;;2.97;82.83;99970.16;5117946;27;20558;-67
2023/11/17 09:51:58;;;;;;;6.87;5.07;;;;;;;2.90;83.29;99971.72;5119246;27;20210;-66
2023/11/17 09:54:30;;;;;;;9.13;5.30;;;;;;;2.83;82.59;99960.56;5117195;27;20219;-67
2023/11/17 09:56:59;;;;;;;6.03;4.97;;;;;;;2.83;82.75;99969.91;5098378;28;20623;-67
2023/11/17 09:59:32;;;;;;;9.73;4.87;;;;;;;2.89;82.64;99973.41;5109691;27;20662;-66
2023/11/17 10:02:03;;;;;;;8.70;5.50;;;;;;;2.97;84.13;99967.59;5103693;27;20200;-68
2023/11/17 10:04:32;;;;;;;7.17;5.40;;;;;;;3.05;83.47;99973.69;5111672;27;20289;-68
2023/11/17 10:07:02;;;;;;;8.47;5.70;;;;;;;3.11;81.83;99972.13;5105011;27;20230;-66
2023/11/17 10:09:32;;;;;;;6.50;5.37;;;;;;;3.11;82.74;99976.34;5112964;27;20274;-66
2023/11/17 10:12:01;;;;;;;8.43;6.37;;;;;;;3.13;82.21;99982.34;5099657;27;20615;-67
2023/11/17 10:14:32;;;;;;;6.37;5.07;;;;;;;3.18;82.32;99977.31;5112370;27;20235;-66
2023/11/17 10:17:04;;;;;;;6.93;5.50;;;;;;;3.20;82.42;99976.50;5107531;27;20201;-67
2023/11/17 10:19:34;;;;;;;7.10;5.37;;;;;;;3.26;81.49;99981.69;5109985;27;20196;-65
2023/11/17 10:22:06;;;;;;;6.60;5.23;;;;;;;3.21;81.24;99974.84;5122613;27;20203;-65
2023/11/17 10:24:35;;;;;;;6.43;4.83;;;;;;;3.12;80.84;99995.88;5108005;27;21262;-65
2023/11/17 10:27:03;;;;;;;8.57;6.63;;;;;;;3.03;81.44;99978.75;5107480;27;20574;-65
2023/11/17 10:29:33;;;;;;;8.13;5.03;;;;;;;2.99;81.44;99978.69;5107252;27;20288;-66
2023/11/17 10:32:05;;;;;;;7.53;5.27;;;;;;;3.05;82.61;99981.31;5119126;27;20207;-65
2023/11/17 10:35:13;;;;;;;7.50;4.93;;;;;;;3.06;81.70;99991.56;5111186;27;20632;-66
2023/11/17 10:37:44;;;;;;;7.00;5.07;;;;;;;3.07;80.95;99977.13;5104307;27;20204;-67
2023/11/17 10:40:24;;;;;;;6.13;4.57;;;;;;;3.00;81.73;99977.84;5109359;28;20196;-68
2023/11/17 10:43:04;;;;;;;5.30;4.27;;;;;;;2.99;82.00;99976.16;5110875;27;20222;-68
2023/11/17 10:45:33;;;;;;;5.67;5.03;;;;;;;2.98;81.01;99982.91;5118116;27;20199;-68
2023/11/17 10:48:06;;;;;;;7.50;5.40;;;;;;;2.98;82.92;99979.50;5105482;28;20211;-70
2023/11/17 10:50:38;;;;;;;5.27;4.67;;;;;;;3.00;83.00;99978.69;5113282;27;20743;-70
2023/11/17 10:53:18;;;;;;;5.07;4.40;;;;;;;2.95;82.46;99967.59;5121552;27;20654;-72
2023/11/17 10:55:48;;;;;;;5.13;4.40;;;;;;;2.99;82.59;99978.69;5111749;27;20657;-67
2023/11/17 10:58:17;;;;;;;6.77;5.00;;;;;;;3.02;82.27;99978.72;5112009;27;20196;-69
2023/11/17 11:00:46;;;;;;;5.30;4.60;;;;;;;3.05;82.47;99987.28;5101569;28;20719;-69
2023/11/17 11:03:18;;;;;;;5.30;4.53;;;;;;;3.04;82.66;99982.16;5106176;27;20202;-68
2023/11/17 11:05:48;;;;;;;6.00;5.07;;;;;;;3.04;83.34;99990.66;5116846;27;20206;-70
2023/11/17 11:08:18;;;;;;;7.27;5.70;;;;;;;3.06;82.42;99993.25;5113481;27;20196;-77
2023/11/17 11:10:54;;;;;;;6.73;5.90;;;;;;;3.11;82.46;99997.56;5112006;27;20235;-70
2023/11/17 11:13:28;;;;;;;6.20;5.30;;;;;;;3.18;81.71;99997.69;5107550;27;20231;-75
2023/11/17 11:16:05;;;;;;;6.47;4.93;;;;;;;3.16;82.54;99995.09;5109493;28;20234;-73
2023/11/17 11:18:37;;;;;;;6.43;4.90;;;;;;;3.16;81.40;100000.19;5119679;27;20242;-73
2023/11/17 11:21:08;;;;;;;7.33;5.40;;;;;;;3.17;81.70;100001.94;5142872;27;20261;-74
2023/11/17 11:23:38;;;;;;;5.53;4.63;;;;;;;3.13;81.77;100000.16;5114461;27;20225;-73
2023/11/17 11:26:07;;;;;;;6.80;5.13;;;;;;;3.11;82.54;100001.81;5096685;27;20295;-67
2023/11/17 11:28:35;;;;;;;6.03;4.63;;;;;;;3.09;81.11;100003.44;5100894;27;20681;-65
2023/11/17 11:31:07;;;;;;;5.43;4.93;;;;;;;3.08;82.70;99994.97;5119659;27;20221;-69
2023/11/17 11:33:37;;;;;;;6.90;4.67;;;;;;;3.08;82.93;99996.66;5107011;27;20276;-67
2023/11/17 11:36:10;;;;;;;5.80;5.17;;;;;;;3.06;82.28;100004.28;5100996;27;20629;-66
2023/11/17 11:38:40;;;;;;;6.30;5.47;;;;;;;3.03;84.10;100001.66;5107790;27;20208;-66
2023/11/17 11:41:11;;;;;;;8.70;5.60;;;;;;;3.09;83.36;100013.63;5107186;28;20296;-68
2023/11/17 11:43:40;;;;;;;10.03;6.07;;;;;;;3.11;84.46;100004.34;5098307;27;20292;-68
2023/11/17 11:46:10;;;;;;;7.60;5.73;;;;;;;3.07;83.11;100005.13;5102227;28;20577;-69
2023/11/17 11:48:43;;;;;;;8.13;6.40;;;;;;;2.93;83.15;100004.03;5091629;28;20212;-67